Bowyer, South Carolina
Current Conditions -  °F | °C
As of 2:15 PM on Friday 24 Oct 2014 (Local Time) from KDYB Reporting Station
Clear Clear  
Wind Chill: 72°   Ceiling: Unl
Heat Index: 72°   Visibility: 10mi
Dew Point: 48°   Wind: 0mph
Humidity: 43%   Direction: NA
Pressure: 30.02"   Gusts: NA
Location:  33.3181°N, 80.3899°W
Report Text: KDYB 241815Z AUTO 00000KT 10SM CLR 22/09 A3002 RMK AO1
Loading
Personal Weather Stations






























Interactive Weather Map
Tropical Storm Tracking
New forecast layout! Learn more

10-Day Weather Forecast

Advertisements
Track Severe Weather on mobile